createdAt,value
2019-01-26T00:00:49.503Z,22.40
2019-01-26T00:02:57.185Z,20.73
2019-01-26T00:05:03.865Z,18.60
2019-01-26T00:07:10.414Z,20.20
2019-01-26T00:09:16.636Z,21.60
2019-01-26T00:11:22.959Z,21.97
2019-01-26T00:13:29.716Z,19.50
2019-01-26T00:15:36.394Z,17.67
2019-01-26T00:17:44.285Z,19.63
2019-01-26T00:19:50.460Z,19.90
2019-01-26T00:21:59.743Z,18.57
2019-01-26T00:24:08.748Z,18.57
2019-01-26T00:26:16.600Z,20.60
2019-01-26T00:28:22.771Z,20.33
2019-01-26T00:30:30.302Z,16.50
2019-01-26T00:32:40.299Z,19.63
2019-01-26T00:34:46.654Z,20.23
2019-01-26T00:36:52.922Z,20.10
2019-01-26T00:38:59.343Z,19.27
2019-01-26T00:41:05.731Z,20.80
2019-01-26T00:43:12.141Z,21.30
2019-01-26T00:45:19.700Z,20.40
2019-01-26T00:47:27.631Z,19.43
2019-01-26T00:49:33.748Z,19.03
2019-01-26T00:51:41.451Z,19.67
2019-01-26T00:53:48.488Z,20.17
2019-01-26T00:55:54.802Z,21.70
2019-01-26T00:58:00.934Z,21.03
2019-01-26T01:00:22.235Z,17.60
2019-01-26T01:02:28.298Z,19.33
2019-01-26T01:04:34.518Z,20.47
2019-01-26T01:06:40.938Z,20.13
2019-01-26T01:08:47.296Z,19.57
2019-01-26T01:10:57.154Z,19.13
2019-01-26T01:13:03.080Z,21.20
2019-01-26T01:15:14.468Z,19.67
2019-01-26T01:17:22.454Z,20.13
2019-01-26T01:19:30.217Z,19.00
2019-01-26T01:21:37.562Z,18.97
2019-01-26T01:23:44.109Z,19.03
2019-01-26T01:25:50.489Z,21.80
2019-01-26T01:27:57.024Z,19.90
2019-01-26T01:30:03.108Z,20.83
2019-01-26T01:32:11.501Z,21.57
2019-01-26T01:34:19.510Z,20.67
2019-01-26T01:36:25.890Z,20.43
2019-01-26T01:38:32.179Z,20.63
2019-01-26T01:40:40.259Z,18.17
2019-01-26T01:42:49.112Z,18.90
2019-01-26T01:44:56.851Z,19.40
2019-01-26T01:47:03.634Z,20.03
2019-01-26T01:49:10.119Z,19.57
2019-01-26T01:51:16.570Z,20.03
2019-01-26T01:53:22.811Z,19.80
2019-01-26T01:55:29.651Z,19.17
2019-01-26T01:57:36.218Z,19.53
2019-01-26T01:59:43.847Z,17.90
2019-01-26T02:01:50.116Z,19.23
2019-01-26T02:03:56.371Z,18.87
2019-01-26T02:06:03.360Z,20.53
2019-01-26T02:08:16.270Z,19.57
2019-01-26T02:10:24.221Z,18.73
2019-01-26T02:12:30.438Z,21.73
2019-01-26T02:14:38.520Z,20.03
2019-01-26T02:16:50.049Z,22.23
2019-01-26T02:18:53.924Z,22.47
2019-01-26T02:21:01.926Z,22.33
2019-01-26T02:23:08.224Z,23.43
2019-01-26T02:25:14.694Z,21.17
2019-01-26T02:27:21.603Z,20.47
2019-01-26T02:29:27.663Z,22.17
2019-01-26T02:31:34.246Z,20.63
2019-01-26T02:33:40.711Z,23.57
2019-01-26T02:35:46.914Z,26.20
2019-01-26T02:37:53.247Z,23.47
2019-01-26T02:40:00.848Z,23.07
2019-01-26T02:42:08.492Z,23.40
2019-01-26T02:44:17.070Z,22.17
2019-01-26T02:46:23.182Z,23.17
2019-01-26T02:48:29.600Z,21.87
2019-01-26T02:50:36.527Z,22.00
2019-01-26T02:52:43.970Z,24.07
2019-01-26T02:54:50.052Z,22.23
2019-01-26T02:56:56.127Z,21.07
2019-01-26T02:59:03.378Z,22.63
2019-01-26T03:01:09.635Z,26.27
2019-01-26T03:03:16.892Z,33.30
2019-01-26T03:05:23.583Z,22.60
2019-01-26T03:07:31.291Z,25.27
2019-01-26T03:09:37.983Z,24.80
2019-01-26T03:11:45.083Z,23.83
2019-01-26T03:13:52.851Z,22.60
2019-01-26T03:16:02.072Z,22.53
2019-01-26T03:18:08.341Z,26.00
2019-01-26T03:20:16.809Z,23.00
2019-01-26T03:22:22.789Z,25.83
2019-01-26T03:24:29.567Z,24.70
2019-01-26T03:26:37.477Z,23.50
2019-01-26T03:28:43.742Z,24.00
2019-01-26T03:30:51.993Z,23.37
2019-01-26T03:32:57.990Z,24.70
2019-01-26T03:37:39.943Z,23.87
2019-01-26T03:42:30.954Z,23.30
2019-01-26T03:44:37.296Z,24.57
2019-01-26T03:46:43.762Z,25.80
2019-01-26T03:48:49.913Z,30.77
2019-01-26T03:50:56.231Z,26.17
2019-01-26T03:53:02.321Z,24.87
2019-01-26T03:55:12.583Z,23.70
2019-01-26T03:57:20.253Z,26.43
2019-01-26T03:59:28.084Z,26.23
2019-01-26T04:01:34.446Z,26.40
2019-01-26T04:03:40.498Z,24.50
2019-01-26T04:05:48.146Z,22.80
2019-01-26T04:07:54.456Z,26.40
2019-01-26T04:10:00.606Z,26.70
2019-01-26T04:12:07.034Z,26.37
2019-01-26T04:14:13.132Z,25.07
2019-01-26T04:16:20.050Z,26.67
2019-01-26T04:18:26.247Z,27.70
2019-01-26T04:20:32.885Z,25.70
2019-01-26T04:22:40.368Z,27.63
2019-01-26T04:24:47.229Z,25.10
2019-01-26T04:26:55.573Z,25.93
2019-01-26T04:29:02.131Z,27.60
2019-01-26T04:31:08.574Z,26.80
2019-01-26T04:33:16.969Z,29.40
2019-01-26T04:35:23.143Z,29.73
2019-01-26T04:37:29.646Z,25.87
2019-01-26T04:39:36.262Z,27.27
2019-01-26T04:41:42.329Z,27.33
2019-01-26T04:43:48.369Z,26.47
2019-01-26T04:45:54.891Z,27.87
2019-01-26T04:48:01.363Z,29.10
2019-01-26T04:50:11.856Z,26.50
2019-01-26T04:52:18.320Z,29.90
2019-01-26T04:54:26.075Z,27.80
2019-01-26T04:56:32.729Z,29.17
2019-01-26T04:58:39.249Z,31.07
2019-01-26T05:00:45.773Z,28.27
2019-01-26T05:02:52.510Z,29.73
2019-01-26T05:04:59.517Z,27.10
2019-01-26T05:07:05.710Z,26.47
2019-01-26T05:09:11.811Z,27.17
2019-01-26T05:11:18.456Z,29.30
2019-01-26T05:13:26.180Z,26.43
2019-01-26T05:15:32.469Z,27.70
2019-01-26T05:17:39.523Z,26.07
2019-01-26T05:19:46.054Z,27.33
2019-01-26T05:21:52.345Z,24.43
2019-01-26T05:23:58.651Z,29.63
2019-01-26T05:26:05.018Z,26.00
2019-01-26T05:28:12.162Z,27.77
2019-01-26T05:30:25.625Z,30.10
2019-01-26T05:32:31.783Z,32.43
2019-01-26T05:34:39.883Z,29.47
2019-01-26T05:36:47.258Z,32.33
2019-01-26T05:38:53.635Z,32.43
2019-01-26T05:41:00.012Z,34.53
2019-01-26T05:43:06.055Z,41.83
2019-01-26T05:45:18.841Z,40.47
2019-01-26T05:47:26.755Z,33.10
2019-01-26T05:49:33.126Z,32.03
2019-01-26T05:51:41.756Z,30.07
2019-01-26T05:53:48.772Z,35.83
2019-01-26T05:55:55.199Z,31.53
2019-01-26T05:58:01.329Z,35.80
2019-01-26T06:00:13.348Z,33.93
2019-01-26T06:02:19.806Z,30.93
2019-01-26T06:04:26.879Z,32.30
2019-01-26T06:06:33.375Z,25.90
2019-01-26T06:08:44.303Z,30.63
2019-01-26T06:10:55.820Z,47.47
2019-01-26T06:13:02.922Z,39.40
2019-01-26T06:15:12.206Z,28.30
2019-01-26T06:17:18.773Z,28.10
2019-01-26T06:19:25.117Z,28.80
2019-01-26T06:21:32.091Z,28.80
2019-01-26T06:23:38.962Z,29.57
2019-01-26T06:25:45.039Z,33.33
2019-01-26T06:27:52.992Z,30.43
2019-01-26T06:30:00.012Z,31.90
2019-01-26T06:32:06.343Z,29.97
2019-01-26T06:34:13.263Z,29.27
2019-01-26T06:36:19.463Z,30.23
2019-01-26T06:38:25.694Z,35.23
2019-01-26T06:40:32.146Z,37.10
2019-01-26T06:42:38.271Z,32.07
2019-01-26T06:44:46.120Z,36.70
2019-01-26T06:46:52.370Z,32.93
2019-01-26T06:48:59.227Z,35.50
2019-01-26T06:51:06.198Z,29.70
2019-01-26T06:53:12.417Z,39.10
2019-01-26T06:55:19.455Z,34.10
2019-01-26T06:57:25.491Z,40.70
2019-01-26T06:59:31.571Z,56.87
2019-01-26T07:01:40.994Z,44.00
2019-01-26T07:03:48.851Z,36.00
2019-01-26T07:05:59.853Z,31.93
2019-01-26T07:08:06.332Z,32.20
2019-01-26T07:10:12.632Z,37.50
2019-01-26T07:12:19.968Z,38.43
2019-01-26T07:14:26.231Z,34.40
2019-01-26T07:16:32.903Z,32.30
2019-01-26T07:18:39.037Z,32.90
2019-01-26T07:20:46.855Z,31.33
2019-01-26T07:22:53.001Z,29.87
2019-01-26T07:25:00.995Z,31.90
2019-01-26T07:27:07.412Z,40.10
2019-01-26T07:29:13.561Z,33.73
2019-01-26T07:31:19.901Z,30.23
2019-01-26T07:33:25.946Z,29.23
2019-01-26T07:35:32.311Z,32.43
2019-01-26T07:37:40.505Z,31.70
2019-01-26T07:39:48.272Z,33.67
2019-01-26T07:41:54.700Z,34.53
2019-01-26T07:44:00.942Z,34.83
2019-01-26T07:46:07.200Z,34.83
2019-01-26T07:48:16.920Z,34.33
2019-01-26T07:50:26.482Z,36.20
2019-01-26T07:52:32.922Z,35.10
2019-01-26T07:54:40.954Z,33.80
2019-01-26T07:56:47.321Z,33.37
2019-01-26T07:58:54.401Z,33.07
2019-01-26T08:01:01.461Z,31.03
2019-01-26T08:03:07.620Z,34.00
2019-01-26T08:05:13.961Z,30.83
2019-01-26T08:07:20.548Z,33.77
2019-01-26T08:09:28.251Z,34.77
2019-01-26T08:11:34.422Z,32.20
2019-01-26T08:13:41.976Z,30.97
2019-01-26T08:15:49.692Z,31.37
2019-01-26T08:17:56.764Z,32.83
2019-01-26T08:20:03.581Z,32.37
2019-01-26T08:22:09.785Z,33.97
2019-01-26T08:24:15.955Z,31.43
2019-01-26T08:26:23.171Z,30.57
2019-01-26T08:28:29.294Z,34.60
2019-01-26T08:30:35.610Z,33.13
2019-01-26T08:32:42.424Z,32.97
2019-01-26T08:34:48.776Z,33.30
2019-01-26T08:36:54.943Z,32.10
2019-01-26T08:39:02.281Z,30.67
2019-01-26T08:41:08.597Z,39.97
2019-01-26T08:43:14.975Z,43.03
2019-01-26T08:45:21.107Z,41.17
2019-01-26T08:47:27.431Z,64.60
2019-01-26T08:49:33.702Z,56.43
2019-01-26T08:51:40.508Z,155.53
2019-01-26T08:53:47.842Z,64.13
2019-01-26T08:55:54.256Z,39.47
2019-01-26T08:58:03.029Z,37.00
2019-01-26T09:00:28.590Z,37.17
2019-01-26T09:02:46.020Z,35.27
2019-01-26T09:04:55.768Z,36.90
2019-01-26T09:07:02.948Z,35.80
2019-01-26T09:09:11.591Z,38.43
2019-01-26T09:11:17.711Z,34.97
2019-01-26T09:13:23.990Z,32.50
2019-01-26T09:15:32.053Z,32.93
2019-01-26T09:17:38.331Z,37.67
2019-01-26T09:19:46.023Z,35.13
2019-01-26T09:21:55.410Z,35.00
2019-01-26T09:24:02.551Z,37.37
2019-01-26T09:26:10.693Z,36.63
2019-01-26T09:28:17.157Z,35.13
2019-01-26T09:30:23.679Z,37.20
2019-01-26T09:32:32.257Z,37.60
2019-01-26T09:34:39.741Z,36.20
2019-01-26T09:36:46.150Z,32.07
2019-01-26T09:38:52.187Z,35.13
2019-01-26T09:40:58.618Z,33.30
2019-01-26T09:43:05.046Z,34.07
2019-01-26T09:45:20.611Z,37.70
2019-01-26T09:47:26.761Z,33.47
2019-01-26T09:49:33.140Z,35.60
2019-01-26T09:51:42.671Z,40.70
2019-01-26T09:53:49.281Z,41.97
2019-01-26T09:55:57.321Z,35.77
2019-01-26T09:58:03.571Z,34.83
2019-01-26T10:00:26.340Z,35.97
2019-01-26T10:02:33.721Z,38.37
2019-01-26T10:04:40.557Z,43.10
2019-01-26T10:06:46.998Z,48.80
2019-01-26T10:08:53.320Z,37.27
2019-01-26T10:11:00.012Z,37.77
2019-01-26T10:13:06.341Z,37.80
2019-01-26T10:15:23.471Z,44.17
2019-01-26T10:17:30.350Z,41.30
2019-01-26T10:19:37.440Z,40.27
2019-01-26T10:21:43.901Z,48.53
2019-01-26T10:23:51.281Z,37.40
2019-01-26T10:25:57.877Z,38.10
2019-01-26T10:28:04.581Z,35.63
2019-01-26T10:30:25.722Z,35.37
2019-01-26T10:32:32.682Z,35.90
2019-01-26T10:34:39.049Z,35.00
2019-01-26T10:36:47.906Z,36.57
2019-01-26T10:38:55.570Z,35.37
2019-01-26T10:41:03.381Z,32.97
2019-01-26T10:43:10.768Z,33.50
2019-01-26T10:45:19.490Z,36.77
2019-01-26T10:47:27.730Z,42.87
2019-01-26T10:49:34.311Z,40.73
2019-01-26T10:51:40.491Z,38.33
2019-01-26T10:53:49.530Z,38.80
2019-01-26T10:55:57.491Z,36.83
2019-01-26T10:58:05.961Z,38.43
2019-01-26T11:00:19.961Z,42.77
2019-01-26T11:02:26.378Z,37.13
2019-01-26T11:04:32.512Z,42.83
2019-01-26T11:06:38.690Z,40.50
2019-01-26T11:08:46.699Z,41.57
2019-01-26T11:10:53.559Z,37.60
2019-01-26T11:13:00.103Z,39.57
2019-01-26T11:15:10.062Z,37.60
2019-01-26T11:17:16.945Z,40.93
2019-01-26T11:19:24.026Z,40.13
2019-01-26T11:21:34.081Z,41.20
2019-01-26T11:23:41.046Z,37.67
2019-01-26T11:25:47.095Z,43.70
2019-01-26T11:27:53.563Z,41.47
2019-01-26T11:30:00.210Z,40.20
2019-01-26T11:32:06.626Z,45.97
2019-01-26T11:34:13.382Z,55.37
2019-01-26T11:36:20.126Z,51.27
2019-01-26T11:38:27.486Z,45.60
2019-01-26T11:40:35.086Z,43.70
2019-01-26T11:42:41.986Z,47.53
2019-01-26T11:45:05.852Z,38.83
2019-01-26T11:47:16.114Z,45.33
2019-01-26T11:49:23.395Z,44.93
2019-01-26T11:51:31.195Z,40.20
2019-01-26T11:53:38.337Z,39.80
2019-01-26T11:55:46.279Z,39.23
2019-01-26T11:57:52.731Z,40.07
2019-01-26T12:00:09.766Z,44.03
2019-01-26T12:02:18.177Z,40.67
2019-01-26T12:04:26.177Z,40.13
2019-01-26T12:06:35.354Z,38.60
2019-01-26T12:08:41.656Z,38.03
2019-01-26T12:10:48.143Z,39.83
2019-01-26T12:12:54.375Z,38.63
2019-01-26T12:15:00.521Z,41.30
2019-01-26T12:17:07.315Z,39.30
2019-01-26T12:19:13.692Z,39.30
2019-01-26T12:21:26.868Z,40.33
2019-01-26T12:23:33.443Z,37.73
2019-01-26T12:25:39.523Z,40.57
2019-01-26T12:27:45.987Z,42.30
2019-01-26T12:29:53.363Z,45.30
2019-01-26T12:32:00.440Z,48.27
2019-01-26T12:34:06.823Z,45.87
2019-01-26T12:36:13.318Z,48.13
2019-01-26T12:38:19.846Z,46.00
2019-01-26T12:40:28.494Z,42.27
2019-01-26T12:42:34.934Z,46.33
2019-01-26T12:44:41.274Z,46.73
2019-01-26T12:46:47.654Z,46.33
2019-01-26T12:48:54.340Z,47.37
2019-01-26T12:51:01.475Z,46.93
2019-01-26T12:53:08.073Z,50.50
2019-01-26T12:55:20.096Z,48.97
2019-01-26T12:57:26.579Z,42.33
2019-01-26T12:59:32.882Z,40.47
2019-01-26T13:01:40.695Z,49.03
2019-01-26T13:03:47.055Z,44.93
2019-01-26T13:05:53.724Z,44.47
2019-01-26T13:07:59.900Z,46.37
2019-01-26T13:10:10.903Z,44.93
2019-01-26T13:12:17.694Z,47.30
2019-01-26T13:14:24.973Z,45.67
2019-01-26T13:16:35.985Z,43.60
2019-01-26T13:18:43.647Z,47.30
2019-01-26T13:20:50.086Z,42.77
2019-01-26T13:22:57.261Z,43.17
2019-01-26T13:25:08.316Z,44.10
2019-01-26T13:27:14.949Z,46.83
2019-01-26T13:29:21.395Z,53.17
2019-01-26T13:31:28.008Z,53.00
2019-01-26T13:33:34.443Z,49.77
2019-01-26T13:35:41.050Z,45.47
2019-01-26T13:37:47.443Z,43.00
2019-01-26T13:39:55.277Z,42.60
2019-01-26T13:42:03.284Z,49.17
2019-01-26T13:44:20.882Z,45.37
2019-01-26T13:46:28.004Z,41.73
2019-01-26T13:48:35.414Z,41.37
2019-01-26T13:50:43.085Z,39.50
2019-01-26T13:52:50.279Z,41.80
2019-01-26T13:54:57.505Z,44.80
2019-01-26T13:57:04.043Z,46.07
2019-01-26T13:59:10.326Z,46.50
2019-01-26T14:01:17.303Z,44.47
2019-01-26T14:03:23.666Z,45.60
2019-01-26T14:05:30.242Z,45.27
2019-01-26T14:07:36.725Z,42.43
2019-01-26T14:09:46.954Z,64.03
2019-01-26T14:11:53.648Z,47.40
2019-01-26T14:14:00.585Z,44.20
2019-01-26T14:16:07.538Z,45.30
2019-01-26T14:18:14.251Z,43.10
2019-01-26T14:20:28.619Z,47.57
2019-01-26T14:22:34.853Z,49.70
2019-01-26T14:24:41.512Z,44.90
2019-01-26T14:26:49.816Z,45.27
2019-01-26T14:28:56.282Z,42.50
2019-01-26T14:31:03.030Z,46.30
2019-01-26T14:33:10.021Z,44.80
2019-01-26T14:35:18.164Z,42.37
2019-01-26T14:37:24.611Z,50.10
2019-01-26T14:39:31.380Z,48.37
2019-01-26T14:41:38.410Z,45.30
2019-01-26T14:43:44.870Z,43.07
2019-01-26T14:45:51.519Z,43.23
2019-01-26T14:47:58.188Z,42.70
2019-01-26T14:50:07.370Z,45.03
2019-01-26T14:52:15.350Z,46.30
2019-01-26T14:54:22.297Z,44.73
2019-01-26T14:56:29.191Z,49.33
2019-01-26T14:58:35.650Z,48.73
2019-01-26T15:00:42.803Z,53.73
2019-01-26T15:02:49.370Z,47.97
2019-01-26T15:04:56.047Z,48.07
2019-01-26T15:07:04.377Z,49.10
2019-01-26T15:09:11.261Z,47.77
2019-01-26T15:11:20.960Z,48.93
2019-01-26T15:13:27.621Z,48.70
2019-01-26T15:15:34.558Z,52.73
2019-01-26T15:17:40.971Z,49.87
2019-01-26T15:19:47.961Z,49.10
2019-01-26T15:21:54.508Z,57.53
2019-01-26T15:24:00.990Z,63.50
2019-01-26T15:26:07.290Z,59.07
2019-01-26T15:28:13.710Z,47.93
2019-01-26T15:30:29.278Z,46.80
2019-01-26T15:32:36.051Z,44.00
2019-01-26T15:34:42.421Z,46.33
2019-01-26T15:36:49.379Z,129.43
2019-01-26T15:38:56.055Z,55.80
2019-01-26T15:41:04.366Z,126.53
2019-01-26T15:43:11.328Z,108.30
2019-01-26T15:45:22.847Z,72.20
2019-01-26T15:47:29.721Z,57.83
2019-01-26T15:49:36.498Z,50.77
2019-01-26T15:51:43.400Z,50.30
2019-01-26T15:53:53.113Z,46.50
2019-01-26T15:56:02.599Z,47.67
2019-01-26T15:58:12.430Z,52.67
2019-01-26T16:00:26.381Z,51.27
2019-01-26T16:02:34.309Z,57.47
2019-01-26T16:04:43.390Z,51.90
2019-01-26T16:06:50.157Z,57.30
2019-01-26T16:08:56.740Z,50.87
2019-01-26T16:11:03.458Z,59.40
2019-01-26T16:13:10.050Z,58.27
2019-01-26T16:15:23.711Z,52.73
2019-01-26T16:17:30.410Z,55.57
2019-01-26T16:19:37.501Z,48.73
2019-01-26T16:21:47.798Z,47.67
2019-01-26T16:24:03.420Z,51.60
2019-01-26T16:26:15.584Z,49.03
2019-01-26T16:28:29.154Z,52.53
2019-01-26T16:30:39.628Z,50.93
2019-01-26T16:32:47.442Z,55.90
2019-01-26T16:34:54.351Z,55.37
2019-01-26T16:37:01.370Z,65.70
2019-01-26T16:39:09.780Z,51.23
2019-01-26T16:41:17.901Z,53.37
2019-01-26T16:43:27.795Z,50.43
2019-01-26T16:45:39.002Z,51.70
2019-01-26T16:47:50.823Z,48.13
2019-01-26T16:49:58.737Z,48.53
2019-01-26T16:52:05.531Z,55.37
2019-01-26T16:54:15.663Z,52.37
2019-01-26T16:56:28.730Z,49.10
2019-01-26T16:58:42.931Z,49.10
2019-01-26T17:00:49.623Z,47.77
2019-01-26T17:02:56.367Z,49.10
2019-01-26T17:05:04.317Z,47.43
2019-01-26T17:07:11.021Z,53.77
2019-01-26T17:09:20.985Z,61.63
2019-01-26T17:11:34.261Z,54.13
2019-01-26T17:13:45.756Z,53.10
2019-01-26T17:15:53.205Z,54.20
2019-01-26T17:18:00.406Z,56.13
2019-01-26T17:20:34.598Z,53.13
2019-01-26T17:22:37.085Z,53.90
2019-01-26T17:24:45.168Z,57.97
2019-01-26T17:26:53.573Z,63.10
2019-01-26T17:29:00.360Z,62.80
2019-01-26T17:31:06.887Z,60.23
2019-01-26T17:33:15.878Z,59.83
2019-01-26T17:35:27.155Z,58.87
2019-01-26T17:37:40.193Z,63.67
2019-01-26T17:39:50.379Z,58.80
2019-01-26T17:42:04.115Z,58.33
2019-01-26T17:44:19.633Z,55.43
2019-01-26T17:46:33.688Z,118.00
2019-01-26T17:48:50.738Z,105.37
2019-01-26T17:50:59.931Z,80.50
2019-01-26T17:53:09.192Z,60.63
2019-01-26T17:55:15.923Z,60.17
2019-01-26T17:57:26.015Z,64.57
2019-01-26T17:59:37.323Z,59.47
2019-01-26T18:01:51.220Z,66.90
2019-01-26T18:04:04.255Z,74.43
2019-01-26T18:06:11.940Z,59.93
2019-01-26T18:08:18.699Z,56.43
2019-01-26T18:12:40.502Z,53.57
2019-01-26T18:14:47.322Z,51.87
2019-01-26T18:16:54.332Z,55.87
2019-01-26T18:19:01.540Z,51.93
2019-01-26T18:21:08.897Z,54.00
2019-01-26T18:23:17.850Z,57.67
2019-01-26T18:25:26.281Z,53.57
2019-01-26T18:27:33.289Z,58.73
2019-01-26T18:29:40.039Z,55.53
2019-01-26T18:31:46.910Z,57.27
2019-01-26T18:33:53.897Z,61.30
2019-01-26T18:36:01.280Z,56.57
2019-01-26T18:38:08.057Z,53.10
2019-01-26T18:40:22.769Z,52.83
2019-01-26T18:42:29.548Z,54.23
2019-01-26T18:44:38.400Z,54.57
2019-01-26T18:46:47.111Z,58.93
2019-01-26T18:48:54.007Z,56.93
2019-01-26T18:51:00.920Z,53.53
2019-01-26T18:53:07.707Z,54.80
2019-01-26T18:55:14.613Z,51.30
2019-01-26T18:57:21.305Z,51.33
2019-01-26T18:59:28.163Z,47.90
2019-01-26T19:01:34.832Z,51.03
2019-01-26T19:03:51.705Z,50.13
2019-01-26T19:06:00.783Z,52.80
2019-01-26T19:08:08.027Z,48.77
2019-01-26T19:10:15.403Z,49.73
2019-01-26T19:12:22.107Z,45.60
2019-01-26T19:14:29.127Z,33.57
2019-01-26T19:16:36.542Z,46.77
2019-01-26T19:18:43.374Z,39.97
2019-01-26T19:20:50.128Z,40.00
2019-01-26T19:23:01.878Z,44.47
2019-01-26T19:25:13.830Z,43.90
2019-01-26T19:27:22.486Z,44.23
2019-01-26T19:29:29.402Z,38.20
2019-01-26T19:31:36.351Z,37.27
2019-01-26T19:33:44.408Z,41.47
2019-01-26T19:35:51.648Z,40.20
2019-01-26T19:37:58.565Z,91.20
2019-01-26T19:40:14.442Z,54.10
2019-01-26T19:42:21.494Z,38.97
2019-01-26T19:44:28.189Z,52.10
2019-01-26T19:46:35.176Z,54.87
2019-01-26T19:48:42.214Z,57.57
2019-01-26T19:50:49.003Z,44.93
2019-01-26T19:52:56.351Z,39.87
2019-01-26T19:55:03.043Z,41.77
2019-01-26T19:57:10.031Z,41.27
2019-01-26T19:59:17.900Z,35.63
2019-01-26T20:01:25.665Z,37.63
2019-01-26T20:03:32.390Z,46.93
2019-01-26T20:05:39.060Z,41.47
2019-01-26T20:07:45.954Z,39.50
2019-01-26T20:09:53.039Z,39.73
2019-01-26T20:12:00.010Z,40.60
2019-01-26T20:14:06.892Z,35.83
2019-01-26T20:16:14.220Z,36.17
2019-01-26T20:18:22.060Z,36.20
2019-01-26T20:20:35.904Z,36.30
2019-01-26T20:22:42.569Z,37.03
2019-01-26T20:24:49.939Z,38.53
2019-01-26T20:26:57.782Z,44.70
2019-01-26T20:29:05.904Z,39.40
2019-01-26T20:31:13.074Z,46.63
2019-01-26T20:33:19.878Z,40.07
2019-01-26T20:35:26.262Z,44.07
2019-01-26T20:37:33.203Z,39.37
2019-01-26T20:39:41.935Z,44.00
2019-01-26T20:41:48.650Z,39.10
2019-01-26T20:43:55.596Z,37.37
2019-01-26T20:46:03.105Z,38.60
2019-01-26T20:48:10.440Z,37.53
2019-01-26T20:50:17.241Z,39.90
2019-01-26T20:52:23.990Z,40.00
2019-01-26T20:54:30.594Z,42.03
2019-01-26T20:56:37.334Z,43.43
2019-01-26T20:58:44.705Z,39.40
2019-01-26T21:00:51.333Z,39.40
2019-01-26T21:02:58.484Z,39.03
2019-01-26T21:05:06.329Z,41.10
2019-01-26T21:07:14.845Z,37.23
2019-01-26T21:09:22.484Z,41.07
2019-01-26T21:11:29.173Z,39.20
2019-01-26T21:13:35.717Z,37.13
2019-01-26T21:15:43.082Z,39.03
2019-01-26T21:17:50.799Z,42.43
2019-01-26T21:19:57.573Z,39.40
2019-01-26T21:22:04.660Z,37.30
2019-01-26T21:24:33.410Z,38.03
2019-01-26T21:26:40.054Z,37.83
2019-01-26T21:28:47.045Z,36.83
2019-01-26T21:30:53.884Z,35.67
2019-01-26T21:33:00.814Z,36.97
2019-01-26T21:35:13.262Z,37.03
2019-01-26T21:37:20.021Z,35.97
2019-01-26T21:39:29.034Z,32.50
2019-01-26T21:41:36.979Z,37.03
2019-01-26T21:43:44.288Z,34.63
2019-01-26T21:45:50.962Z,34.30
2019-01-26T21:47:57.833Z,33.57
2019-01-26T21:50:06.334Z,34.77
2019-01-26T21:52:14.353Z,31.13
2019-01-26T21:54:21.722Z,32.30
2019-01-26T21:56:28.293Z,41.77
2019-01-26T21:58:34.551Z,39.97
2019-01-26T22:00:41.185Z,36.47
2019-01-26T22:02:47.424Z,35.10
2019-01-26T22:04:53.924Z,32.77
2019-01-26T22:07:00.443Z,32.50
2019-01-26T22:09:09.370Z,31.20
2019-01-26T22:13:37.264Z,38.73
2019-01-26T22:15:43.754Z,41.07
2019-01-26T22:17:51.773Z,33.97
2019-01-26T22:20:01.203Z,37.70
2019-01-26T22:22:09.107Z,42.30
2019-01-26T22:24:15.685Z,44.87
2019-01-26T22:26:22.121Z,34.30
2019-01-26T22:28:28.683Z,33.17
2019-01-26T22:30:36.340Z,37.10
2019-01-26T22:32:43.524Z,34.57
2019-01-26T22:34:53.632Z,31.07
2019-01-26T22:37:00.533Z,33.00
2019-01-26T22:39:09.840Z,32.10
2019-01-26T22:41:17.303Z,32.37
2019-01-26T22:43:23.737Z,31.70
2019-01-26T22:45:30.324Z,30.00
2019-01-26T22:47:37.683Z,31.73
2019-01-26T22:49:44.122Z,31.17
2019-01-26T22:51:53.401Z,28.73
2019-01-26T22:54:00.533Z,29.90
2019-01-26T22:56:07.966Z,27.33
2019-01-26T22:58:14.690Z,32.77
2019-01-26T23:00:53.055Z,31.93
2019-01-26T23:03:02.075Z,30.03
2019-01-26T23:05:44.886Z,29.37
2019-01-26T23:07:52.925Z,29.17
2019-01-26T23:10:12.093Z,27.20
2019-01-26T23:12:47.913Z,27.00
2019-01-26T23:15:13.564Z,28.90
2019-01-26T23:17:27.403Z,28.50
2019-01-26T23:19:44.723Z,29.67
2019-01-26T23:22:15.368Z,28.90
2019-01-26T23:24:32.690Z,29.30
2019-01-26T23:27:11.800Z,26.70
2019-01-26T23:29:44.911Z,27.50
2019-01-26T23:31:51.563Z,25.33
2019-01-26T23:33:57.805Z,27.40
2019-01-26T23:36:04.363Z,28.47
2019-01-26T23:38:12.090Z,26.90
2019-01-26T23:40:18.483Z,26.33
2019-01-26T23:42:24.770Z,29.00
2019-01-26T23:44:31.054Z,27.30
2019-01-26T23:46:38.432Z,27.50
2019-01-26T23:48:44.763Z,27.47
2019-01-26T23:50:51.115Z,24.90
2019-01-26T23:52:57.326Z,26.77
2019-01-26T23:55:03.974Z,25.27
2019-01-26T23:57:11.914Z,27.90
2019-01-26T23:59:19.643Z,24.90
